OVERTF weather

Overturf Field
Austin, Arkansas, United States

Public forecast

Using degrees Fahrenheit for public forecast. Weather courtesy of forecast.io.

METAR (pilot weather report)

Closest report is Little Rock Air Force Base, 9.7 nm (18.0 km) WSW. Retrieved 2019/09/17 08:56 UTC (22 minutes ago):

KLRF 170856Z 00000KT 10SM CLR 24/20 A3002 RMK AO2A SLPNO ALSTG ESTMD 54000 $

TAF (pilot weather forecast)

Closest forecast is Little Rock Air Force Base, 9.7 nm (18.0 km) WSW. Retrieved 2019/09/17 07:56 UTC (1 hour ago):

TAF KLRF 170700Z 1707/1813 VRB02KT 9999 SKC QNH2998INS BECMG 1714/1715 10006KT 9999 FEW060 QNH2993INS BECMG 1723/1724 11003KT 9999 FEW110 QNH2995INS TX35/1720Z TN20/1711Z